Roherstown, Pennsylvania
Current Conditions -  °F | °C
As of 2:53 AM on Friday 24 Oct 2014 (Local Time) from KLNS Reporting Station
Overcast Overcast  
Wind Chill: 14°   Ceiling: 3700
Heat Index: 14°   Visibility: 10mi
Dew Point:   Wind: 10mph
Humidity: 57%   Direction: 320°NW
Pressure: 29.87"   Gusts: NA
Location:  40.0115°N, 76.3553°W
Report Text: KLNS 240653Z AUTO 32009KT 10SM OVC037 14/06 A2987 RMK AO2 SLP115 T01390056
Loading
Personal Weather Stations






























Interactive Weather Map
Tropical Storm Tracking
New forecast layout! Learn more

10-Day Weather Forecast

Advertisements
Track Severe Weather on mobile